createdAt,value
2023-02-25T00:02:03.455Z,8.20
2023-02-25T00:04:32.951Z,6.90
2023-02-25T00:07:23.054Z,8.40
2023-02-25T00:12:24.303Z,5.40
2023-02-25T00:14:52.995Z,6.60
2023-02-25T00:17:21.359Z,6.00
2023-02-25T00:19:50.766Z,5.20
2023-02-25T00:22:21.501Z,7.70
2023-02-25T00:24:54.175Z,6.10
2023-02-25T00:27:22.841Z,7.70
2023-02-25T00:29:54.854Z,5.20
2023-02-25T00:32:24.360Z,7.60
2023-02-25T00:34:53.138Z,7.50
2023-02-25T00:37:21.711Z,8.70
2023-02-25T00:39:50.084Z,5.70
2023-02-25T00:42:18.804Z,7.30
2023-02-25T00:44:50.198Z,5.60
2023-02-25T00:47:19.817Z,7.50
2023-02-25T00:49:53.323Z,6.30
2023-02-25T00:52:21.614Z,7.00
2023-02-25T00:54:50.384Z,5.90
2023-02-25T00:57:18.706Z,6.90
2023-02-25T00:59:47.250Z,6.10
2023-02-25T01:02:15.727Z,8.00
2023-02-25T01:04:44.338Z,8.70
2023-02-25T01:07:14.427Z,8.00
2023-02-25T01:09:43.210Z,4.00
2023-02-25T01:12:12.035Z,4.80
2023-02-25T01:14:41.101Z,7.20
2023-02-25T01:17:09.994Z,8.00
2023-02-25T01:19:41.880Z,8.20
2023-02-25T01:22:10.553Z,6.60
2023-02-25T01:24:39.520Z,7.00
2023-02-25T01:27:08.820Z,4.60
2023-02-25T01:29:40.990Z,8.00
2023-02-25T01:32:12.440Z,6.70
2023-02-25T01:34:41.164Z,8.10
2023-02-25T01:37:11.860Z,4.20
2023-02-25T01:39:41.776Z,3.80
2023-02-25T01:42:15.362Z,5.10
2023-02-25T01:45:10.487Z,4.70
2023-02-25T01:47:39.570Z,7.60
2023-02-25T01:50:08.602Z,6.40
2023-02-25T01:52:36.945Z,6.50
2023-02-25T01:55:06.348Z,6.80
2023-02-25T01:57:35.265Z,5.00
2023-02-25T02:00:16.177Z,4.80
2023-02-25T02:02:48.026Z,7.30
2023-02-25T02:05:16.349Z,5.30
2023-02-25T02:07:44.752Z,7.90
2023-02-25T02:10:13.110Z,8.60
2023-02-25T02:12:43.738Z,6.80
2023-02-25T02:15:13.581Z,6.90
2023-02-25T02:17:47.382Z,6.50
2023-02-25T02:20:27.616Z,6.60
2023-02-25T02:23:04.217Z,7.30
2023-02-25T02:26:02.812Z,4.60
2023-02-25T02:28:38.044Z,7.90
2023-02-25T02:31:28.652Z,7.90
2023-02-25T02:34:19.724Z,7.20
2023-02-25T02:36:54.240Z,7.60
2023-02-25T02:39:27.840Z,8.20
2023-02-25T02:42:21.523Z,6.30
2023-02-25T02:45:03.003Z,7.80
2023-02-25T02:47:51.901Z,7.00
2023-02-25T02:50:34.097Z,6.10
2023-02-25T02:53:08.666Z,6.00
2023-02-25T02:55:44.548Z,6.40
2023-02-25T02:58:17.117Z,4.70
2023-02-25T03:00:47.810Z,6.10
2023-02-25T03:03:21.950Z,7.20
2023-02-25T03:05:52.072Z,6.40
2023-02-25T03:08:27.028Z,5.40
2023-02-25T03:10:55.737Z,6.40
2023-02-25T03:13:24.181Z,6.80
2023-02-25T03:15:53.158Z,7.60
2023-02-25T03:18:37.616Z,3.10
2023-02-25T03:21:12.145Z,6.50
2023-02-25T03:23:41.170Z,5.10
2023-02-25T03:26:14.440Z,6.40
2023-02-25T03:28:44.143Z,6.10
2023-02-25T03:31:28.945Z,6.70
2023-02-25T03:34:12.056Z,7.60
2023-02-25T03:36:42.651Z,7.70
2023-02-25T03:39:17.432Z,7.20
2023-02-25T03:41:47.321Z,6.40
2023-02-25T03:44:17.528Z,7.00
2023-02-25T03:46:45.979Z,5.90
2023-02-25T03:49:24.974Z,5.30
2023-02-25T03:51:53.349Z,7.60
2023-02-25T03:54:27.733Z,6.40
2023-02-25T03:56:57.236Z,7.10
2023-02-25T03:59:28.191Z,7.40
2023-02-25T04:01:57.056Z,7.20
2023-02-25T04:04:25.538Z,6.10
2023-02-25T04:06:55.264Z,8.70
2023-02-25T04:09:23.628Z,6.00
2023-02-25T04:11:57.324Z,9.90
2023-02-25T04:14:26.144Z,6.70
2023-02-25T04:16:55.003Z,6.30
2023-02-25T04:19:24.014Z,6.30
2023-02-25T04:21:52.804Z,5.20
2023-02-25T04:24:21.474Z,5.30
2023-02-25T04:26:49.814Z,5.20
2023-02-25T04:29:22.021Z,6.80
2023-02-25T04:31:51.019Z,6.40
2023-02-25T04:34:19.807Z,7.20
2023-02-25T04:36:49.010Z,6.20
2023-02-25T04:39:18.396Z,5.70
2023-02-25T04:41:46.612Z,5.10
2023-02-25T04:44:18.034Z,5.30
2023-02-25T04:46:52.073Z,7.30
2023-02-25T04:49:22.458Z,6.30
2023-02-25T04:51:51.874Z,5.90
2023-02-25T04:54:21.062Z,6.20
2023-02-25T04:56:49.864Z,6.00
2023-02-25T04:59:18.428Z,5.20
2023-02-25T05:01:47.070Z,5.80
2023-02-25T05:04:15.604Z,5.60
2023-02-25T05:06:43.984Z,5.10
2023-02-25T05:09:12.260Z,6.10
2023-02-25T05:11:41.482Z,6.00
2023-02-25T05:14:10.655Z,6.80
2023-02-25T05:16:39.183Z,6.10
2023-02-25T05:19:08.283Z,4.90
2023-02-25T05:21:38.536Z,6.70
2023-02-25T05:24:07.849Z,5.60
2023-02-25T05:26:36.057Z,5.70
2023-02-25T05:29:04.731Z,5.90
2023-02-25T05:31:33.218Z,3.10
2023-02-25T05:34:02.328Z,5.50
2023-02-25T05:36:31.728Z,6.50
2023-02-25T05:39:03.634Z,4.90
2023-02-25T05:41:33.114Z,4.20
2023-02-25T05:44:01.634Z,4.40
2023-02-25T05:46:30.560Z,4.80
2023-02-25T05:48:58.703Z,5.90
2023-02-25T05:51:27.083Z,5.80
2023-02-25T05:56:07.436Z,6.40
2023-02-25T05:58:36.755Z,6.80
2023-02-25T06:01:10.787Z,5.70
2023-02-25T06:03:43.230Z,5.10
2023-02-25T06:06:13.467Z,5.60
2023-02-25T06:08:44.435Z,7.50
2023-02-25T06:11:16.665Z,6.20
2023-02-25T06:13:45.006Z,5.40
2023-02-25T06:16:14.908Z,5.90
2023-02-25T06:18:43.428Z,4.40
2023-02-25T06:21:14.479Z,8.60
2023-02-25T06:23:43.986Z,5.50
2023-02-25T06:26:16.964Z,9.00
2023-02-25T06:28:45.477Z,5.20
2023-02-25T06:31:15.994Z,5.00
2023-02-25T06:33:45.783Z,6.70
2023-02-25T06:36:14.469Z,6.30
2023-02-25T06:38:46.258Z,5.00
2023-02-25T06:41:16.791Z,6.70
2023-02-25T06:43:52.278Z,6.40
2023-02-25T06:48:50.958Z,6.20
2023-02-25T06:51:19.302Z,5.20
2023-02-25T06:53:47.932Z,7.90
2023-02-25T06:56:16.754Z,7.20
2023-02-25T06:58:45.150Z,5.90
2023-02-25T07:01:15.654Z,7.50
2023-02-25T07:03:44.254Z,5.60
2023-02-25T07:06:16.821Z,7.60
2023-02-25T07:08:46.051Z,5.70
2023-02-25T07:11:18.326Z,6.30
2023-02-25T07:13:48.099Z,4.90
2023-02-25T07:16:17.364Z,6.70
2023-02-25T07:18:51.204Z,8.00
2023-02-25T07:21:20.513Z,6.70
2023-02-25T07:23:49.099Z,6.80
2023-02-25T07:26:17.885Z,5.90
2023-02-25T07:28:48.609Z,5.90
2023-02-25T07:31:22.038Z,9.10
2023-02-25T07:33:51.642Z,6.40
2023-02-25T07:36:20.300Z,6.40
2023-02-25T07:38:51.545Z,8.70
2023-02-25T07:41:20.653Z,7.40
2023-02-25T07:43:49.226Z,7.60
2023-02-25T07:46:19.692Z,7.60
2023-02-25T07:48:49.163Z,6.20
2023-02-25T07:51:19.331Z,6.50
2023-02-25T07:53:49.208Z,5.80
2023-02-25T07:56:20.616Z,6.10
2023-02-25T07:58:49.047Z,6.30
2023-02-25T08:01:26.160Z,6.50
2023-02-25T08:03:56.736Z,7.90
2023-02-25T08:06:25.424Z,4.80
2023-02-25T08:08:55.626Z,5.60
2023-02-25T08:11:25.036Z,6.10
2023-02-25T08:13:54.161Z,5.20
2023-02-25T08:16:23.302Z,5.70
2023-02-25T08:18:54.583Z,6.40
2023-02-25T08:21:24.035Z,5.50
2023-02-25T08:23:53.283Z,4.90
2023-02-25T08:26:22.772Z,5.60
2023-02-25T08:28:51.339Z,4.10
2023-02-25T08:31:20.029Z,5.90
2023-02-25T08:33:49.863Z,5.00
2023-02-25T08:36:20.972Z,5.60
2023-02-25T08:38:50.440Z,6.70
2023-02-25T08:41:20.114Z,5.00
2023-02-25T08:43:51.532Z,6.80
2023-02-25T08:46:27.635Z,5.50
2023-02-25T08:48:56.045Z,5.50
2023-02-25T08:51:26.687Z,5.90
2023-02-25T08:53:55.438Z,5.70
2023-02-25T08:56:23.913Z,7.70
2023-02-25T08:58:52.547Z,5.90
2023-02-25T09:01:21.166Z,4.50
2023-02-25T09:03:55.397Z,4.10
2023-02-25T09:06:26.820Z,4.60
2023-02-25T09:08:58.025Z,4.20
2023-02-25T09:11:26.865Z,4.20
2023-02-25T09:13:55.427Z,6.10
2023-02-25T09:16:23.768Z,4.40
2023-02-25T09:18:52.626Z,4.60
2023-02-25T09:21:24.442Z,5.20
2023-02-25T09:23:54.320Z,5.00
2023-02-25T09:26:22.714Z,4.40
2023-02-25T09:28:51.610Z,3.80
2023-02-25T09:31:20.250Z,3.10
2023-02-25T09:33:53.037Z,3.70
2023-02-25T09:36:21.671Z,3.70
2023-02-25T09:38:50.865Z,5.00
2023-02-25T09:41:28.504Z,3.00
2023-02-25T09:44:07.077Z,3.50
2023-02-25T09:46:37.489Z,2.90
2023-02-25T09:51:44.828Z,3.20
2023-02-25T09:54:18.532Z,3.40
2023-02-25T09:56:46.969Z,3.30
2023-02-25T09:59:17.410Z,3.10
2023-02-25T10:02:03.212Z,2.90
2023-02-25T10:04:33.364Z,3.20
2023-02-25T10:07:07.747Z,3.70
2023-02-25T10:09:56.796Z,4.60
2023-02-25T10:12:28.960Z,2.90
2023-02-25T10:15:10.293Z,2.90
2023-02-25T10:18:16.380Z,3.00
2023-02-25T10:20:57.478Z,3.80
2023-02-25T10:24:00.557Z,2.90
2023-02-25T10:26:35.218Z,2.70
2023-02-25T10:29:10.708Z,2.90
2023-02-25T10:31:40.116Z,3.10
2023-02-25T10:34:23.550Z,2.20
2023-02-25T10:37:05.491Z,3.50
2023-02-25T10:39:33.838Z,3.40
2023-02-25T10:42:02.014Z,3.40
2023-02-25T10:44:30.289Z,2.70
2023-02-25T10:47:05.167Z,2.70
2023-02-25T10:49:38.689Z,2.70
2023-02-25T10:52:18.031Z,2.50
2023-02-25T10:54:49.026Z,2.30
2023-02-25T10:57:19.059Z,2.80
2023-02-25T10:59:47.239Z,3.00
2023-02-25T11:02:25.864Z,2.70
2023-02-25T11:04:54.438Z,2.60
2023-02-25T11:07:43.201Z,2.90
2023-02-25T11:10:21.778Z,2.50
2023-02-25T11:12:53.960Z,2.80
2023-02-25T11:15:37.852Z,2.30
2023-02-25T11:18:23.939Z,3.00
2023-02-25T11:20:58.194Z,2.90
2023-02-25T11:23:36.026Z,2.70
2023-02-25T11:26:06.685Z,2.40
2023-02-25T11:28:46.158Z,2.00
2023-02-25T11:31:23.533Z,2.10
2023-02-25T11:33:57.508Z,1.50
2023-02-25T11:36:30.212Z,1.80
2023-02-25T11:39:21.627Z,2.00
2023-02-25T11:41:53.161Z,2.00
2023-02-25T11:44:45.033Z,1.70
2023-02-25T11:47:14.109Z,2.50
2023-02-25T11:50:05.175Z,1.50
2023-02-25T11:52:39.439Z,1.70
2023-02-25T11:55:16.916Z,1.20
2023-02-25T11:58:18.701Z,1.00
2023-02-25T12:01:07.020Z,0.60
2023-02-25T12:03:39.032Z,1.40
2023-02-25T12:06:28.676Z,1.10
2023-02-25T12:09:15.178Z,0.80
2023-02-25T12:12:08.993Z,0.80
2023-02-25T12:14:43.078Z,0.80
2023-02-25T12:17:16.985Z,0.90
2023-02-25T12:20:22.829Z,0.80
2023-02-25T12:23:08.163Z,1.00
2023-02-25T12:26:10.201Z,0.80
2023-02-25T12:29:03.622Z,1.00
2023-02-25T12:31:59.073Z,1.30
2023-02-25T12:34:39.767Z,1.20
2023-02-25T12:37:40.331Z,1.10
2023-02-25T12:40:37.244Z,1.10
2023-02-25T12:43:14.522Z,1.00
2023-02-25T12:46:21.001Z,0.90
2023-02-25T12:49:22.053Z,1.40
2023-02-25T12:52:21.295Z,0.90
2023-02-25T12:54:49.563Z,1.20
2023-02-25T12:57:43.514Z,1.10
2023-02-25T13:00:28.083Z,1.20
2023-02-25T13:03:25.477Z,0.90
2023-02-25T13:06:11.815Z,0.90
2023-02-25T13:08:50.726Z,1.00
2023-02-25T13:12:09.542Z,0.70
2023-02-25T13:14:30.050Z,0.60
2023-02-25T13:17:09.728Z,0.90
2023-02-25T13:20:22.989Z,1.00
2023-02-25T13:23:06.688Z,0.60
2023-02-25T13:25:47.681Z,1.10
2023-02-25T13:28:53.879Z,1.20
2023-02-25T13:31:53.690Z,1.10
2023-02-25T13:34:29.014Z,0.70
2023-02-25T13:37:38.087Z,0.90
2023-02-25T13:40:12.070Z,0.60
2023-02-25T13:42:54.507Z,0.60
2023-02-25T13:45:35.844Z,0.60
2023-02-25T13:48:35.040Z,0.60
2023-02-25T13:51:16.944Z,0.60
2023-02-25T13:54:16.113Z,0.60
2023-02-25T13:57:00.277Z,0.70
2023-02-25T13:59:52.008Z,0.80
2023-02-25T14:02:29.034Z,0.90
2023-02-25T14:05:34.912Z,0.50
2023-02-25T14:08:13.599Z,0.80
2023-02-25T14:10:47.888Z,0.60
2023-02-25T14:13:35.817Z,0.70
2023-02-25T14:16:17.705Z,0.60
2023-02-25T14:18:49.073Z,0.90
2023-02-25T14:21:35.713Z,0.80
2023-02-25T14:24:22.202Z,0.70
2023-02-25T14:27:03.025Z,0.90
2023-02-25T14:29:50.715Z,1.00
2023-02-25T14:32:49.472Z,0.90
2023-02-25T14:35:47.086Z,0.70
2023-02-25T14:38:21.279Z,0.80
2023-02-25T14:40:56.568Z,0.90
2023-02-25T14:43:29.727Z,1.00
2023-02-25T14:46:00.881Z,1.00
2023-02-25T14:48:37.843Z,1.20
2023-02-25T14:52:05.250Z,0.70
2023-02-25T14:54:56.720Z,0.70
2023-02-25T14:57:40.530Z,0.80
2023-02-25T15:00:23.549Z,1.20
2023-02-25T15:03:07.181Z,1.30
2023-02-25T15:05:57.520Z,1.30
2023-02-25T15:08:33.154Z,0.70
2023-02-25T15:11:38.685Z,0.70
2023-02-25T15:14:18.042Z,0.80
2023-02-25T15:17:01.570Z,1.10
2023-02-25T15:19:50.553Z,1.50
2023-02-25T15:22:22.127Z,1.20
2023-02-25T15:24:52.170Z,1.20
2023-02-25T15:27:35.976Z,1.40
2023-02-25T15:30:05.846Z,1.00
2023-02-25T15:32:57.710Z,1.00
2023-02-25T15:35:35.467Z,1.50
2023-02-25T15:38:09.804Z,1.60
2023-02-25T15:40:45.276Z,1.20
2023-02-25T15:43:14.606Z,1.10
2023-02-25T15:45:44.898Z,1.20
2023-02-25T15:48:15.395Z,1.40
2023-02-25T15:50:47.488Z,0.80
2023-02-25T15:53:24.774Z,1.30
2023-02-25T15:56:06.152Z,1.50
2023-02-25T15:58:35.250Z,1.00
2023-02-25T16:01:08.269Z,1.10
2023-02-25T16:03:40.538Z,0.70
2023-02-25T16:06:21.761Z,1.10
2023-02-25T16:09:00.922Z,1.00
2023-02-25T16:11:43.209Z,1.00
2023-02-25T16:14:18.423Z,1.40
2023-02-25T16:16:51.536Z,1.30
2023-02-25T16:19:21.235Z,1.10
2023-02-25T16:21:52.964Z,1.30
2023-02-25T16:24:21.192Z,1.30
2023-02-25T16:26:59.140Z,1.70
2023-02-25T16:30:05.146Z,1.40
2023-02-25T16:32:54.868Z,1.20
2023-02-25T16:35:32.797Z,1.20
2023-02-25T16:38:29.237Z,1.10
2023-02-25T16:41:00.677Z,1.00
2023-02-25T16:43:34.418Z,1.00
2023-02-25T16:46:23.732Z,1.00
2023-02-25T16:48:58.059Z,1.10
2023-02-25T16:51:39.788Z,1.20
2023-02-25T16:54:14.110Z,1.00
2023-02-25T16:56:47.113Z,1.50
2023-02-25T16:59:21.770Z,1.40
2023-02-25T17:01:57.645Z,1.50
2023-02-25T17:04:31.093Z,1.60
2023-02-25T17:07:31.088Z,1.90
2023-02-25T17:10:04.116Z,2.60
2023-02-25T17:12:48.113Z,1.60
2023-02-25T17:15:28.205Z,1.50
2023-02-25T17:18:06.446Z,1.90
2023-02-25T17:20:38.457Z,1.90
2023-02-25T17:23:13.329Z,2.00
2023-02-25T17:25:48.142Z,2.30
2023-02-25T17:28:24.373Z,1.70
2023-02-25T17:31:08.917Z,1.70
2023-02-25T17:33:50.658Z,2.00
2023-02-25T17:36:31.372Z,2.20
2023-02-25T17:45:41.343Z,2.70
2023-02-25T17:48:19.000Z,2.40
2023-02-25T17:51:02.712Z,2.00
2023-02-25T17:53:39.321Z,2.30
2023-02-25T17:56:16.390Z,2.30
2023-02-25T17:58:45.370Z,2.80
2023-02-25T18:01:46.248Z,2.40
2023-02-25T18:04:24.856Z,2.60
2023-02-25T18:06:58.441Z,2.70
2023-02-25T18:09:38.173Z,1.80
2023-02-25T18:12:12.187Z,2.30
2023-02-25T18:14:43.840Z,2.20
2023-02-25T18:17:29.036Z,3.30
2023-02-25T18:20:02.282Z,2.50
2023-02-25T18:22:33.987Z,2.40
2023-02-25T18:25:07.790Z,2.40
2023-02-25T18:27:38.132Z,1.90
2023-02-25T18:30:18.382Z,2.40
2023-02-25T18:32:47.264Z,2.30
2023-02-25T18:35:16.428Z,2.70
2023-02-25T18:37:49.113Z,2.40
2023-02-25T18:40:28.035Z,2.40
2023-02-25T18:42:57.294Z,2.90
2023-02-25T18:45:26.943Z,2.30
2023-02-25T18:47:56.936Z,2.60
2023-02-25T18:50:31.485Z,2.80
2023-02-25T18:53:00.688Z,2.30
2023-02-25T18:55:33.361Z,2.90
2023-02-25T18:58:05.214Z,2.80
2023-02-25T19:00:34.237Z,2.20
2023-02-25T19:03:03.805Z,2.50
2023-02-25T19:05:32.200Z,2.50
2023-02-25T19:08:12.037Z,2.80
2023-02-25T19:10:40.545Z,2.70
2023-02-25T19:13:19.160Z,2.90
2023-02-25T19:15:48.874Z,2.30
2023-02-25T19:18:17.174Z,1.70
2023-02-25T19:20:46.855Z,2.50
2023-02-25T19:23:16.875Z,2.30
2023-02-25T19:25:46.568Z,2.60
2023-02-25T19:28:15.359Z,2.80
2023-02-25T19:30:44.261Z,2.30
2023-02-25T19:33:16.009Z,1.60
2023-02-25T19:35:44.356Z,2.40
2023-02-25T19:38:17.880Z,2.00
2023-02-25T19:40:47.088Z,1.80
2023-02-25T19:43:16.084Z,2.50
2023-02-25T19:45:44.546Z,2.30
2023-02-25T19:48:13.086Z,1.60
2023-02-25T19:50:41.548Z,2.00
2023-02-25T19:53:10.911Z,2.10
2023-02-25T19:55:40.317Z,2.60
2023-02-25T19:58:09.097Z,2.60
2023-02-25T20:00:38.831Z,2.80
2023-02-25T20:03:07.836Z,3.20
2023-02-25T20:05:36.286Z,2.10
2023-02-25T20:08:05.684Z,2.10
2023-02-25T20:10:34.401Z,2.40
2023-02-25T20:13:03.054Z,2.90
2023-02-25T20:15:33.071Z,2.50
2023-02-25T20:18:01.363Z,2.70
2023-02-25T20:20:29.933Z,2.30
2023-02-25T20:22:58.426Z,2.60
2023-02-25T20:25:30.417Z,2.10
2023-02-25T20:27:59.060Z,2.90
2023-02-25T20:30:27.473Z,2.90
2023-02-25T20:32:56.131Z,2.60
2023-02-25T20:35:26.456Z,2.30
2023-02-25T20:38:07.426Z,2.30
2023-02-25T20:40:35.905Z,2.10
2023-02-25T20:43:04.801Z,2.40
2023-02-25T20:45:34.134Z,1.90
2023-02-25T20:48:02.882Z,1.90
2023-02-25T20:50:31.872Z,2.10
2023-02-25T20:53:00.247Z,2.60
2023-02-25T20:55:29.855Z,1.80
2023-02-25T20:57:58.131Z,1.60
2023-02-25T21:00:27.744Z,2.00
2023-02-25T21:02:56.856Z,1.70
2023-02-25T21:05:25.118Z,2.30
2023-02-25T21:07:53.640Z,2.00
2023-02-25T21:10:23.207Z,2.10
2023-02-25T21:12:51.884Z,1.70
2023-02-25T21:15:24.053Z,1.80
2023-02-25T21:17:54.097Z,2.00
2023-02-25T21:20:22.560Z,1.80
2023-02-25T21:22:51.075Z,1.50
2023-02-25T21:25:19.856Z,2.00
2023-02-25T21:27:48.300Z,2.10
2023-02-25T21:30:18.005Z,1.50
2023-02-25T21:32:46.258Z,1.80
2023-02-25T21:35:14.668Z,1.50
2023-02-25T21:37:42.756Z,1.30
2023-02-25T21:40:12.748Z,1.20
2023-02-25T21:42:41.440Z,1.90
2023-02-25T21:45:10.836Z,1.50
2023-02-25T21:47:39.112Z,0.90
2023-02-25T21:50:08.104Z,1.50
2023-02-25T21:52:37.342Z,1.50
2023-02-25T21:55:06.704Z,1.60
2023-02-25T21:57:35.225Z,1.60
2023-02-25T22:00:04.566Z,2.00
2023-02-25T22:02:41.886Z,2.00
2023-02-25T22:05:10.652Z,1.40
2023-02-25T22:07:42.365Z,1.90
2023-02-25T22:10:11.809Z,1.40
2023-02-25T22:12:40.098Z,1.60
2023-02-25T22:15:09.432Z,1.40
2023-02-25T22:17:38.500Z,1.80
2023-02-25T22:20:07.791Z,1.90
2023-02-25T22:22:37.568Z,1.90
2023-02-25T22:25:06.518Z,1.50
2023-02-25T22:27:34.773Z,1.20
2023-02-25T22:30:04.404Z,1.30
2023-02-25T22:32:37.584Z,1.10
2023-02-25T22:35:08.102Z,1.60
2023-02-25T22:37:36.377Z,1.70
2023-02-25T22:40:06.601Z,1.70
2023-02-25T22:42:34.874Z,1.70
2023-02-25T22:45:03.380Z,1.50
2023-02-25T22:47:32.424Z,1.50
2023-02-25T22:50:00.938Z,1.70
2023-02-25T22:52:29.947Z,1.10
2023-02-25T22:54:58.203Z,1.70
2023-02-25T22:57:27.097Z,1.50
2023-02-25T22:59:55.374Z,1.70
2023-02-25T23:02:23.746Z,1.60
2023-02-25T23:04:52.257Z,2.20
2023-02-25T23:07:21.021Z,1.70
2023-02-25T23:09:50.127Z,1.90
2023-02-25T23:12:19.786Z,1.90
2023-02-25T23:14:49.220Z,1.40
2023-02-25T23:17:18.009Z,2.00
2023-02-25T23:19:47.204Z,1.80
2023-02-25T23:22:22.582Z,1.30
2023-02-25T23:24:51.445Z,1.60
2023-02-25T23:27:19.850Z,1.50
2023-02-25T23:29:52.194Z,1.80
2023-02-25T23:32:20.699Z,1.40
2023-02-25T23:34:49.900Z,1.80
2023-02-25T23:37:18.244Z,1.80
2023-02-25T23:39:46.524Z,1.30
2023-02-25T23:42:14.823Z,1.60
2023-02-25T23:44:44.316Z,1.70
2023-02-25T23:47:13.295Z,1.50
2023-02-25T23:49:41.583Z,1.70
2023-02-25T23:52:10.048Z,1.70
2023-02-25T23:54:39.452Z,1.60
2023-02-25T23:57:10.198Z,1.80
2023-02-25T23:59:40.415Z,1.40
